sensor_id;sensor_type;location;lat;lon;timestamp;temperature;humidity
5494;DHT22;2769;49.864;8.656;2022-12-20T00:01:31;6.40;99.90
5494;DHT22;2769;49.864;8.656;2022-12-20T00:04:03;6.40;99.90
5494;DHT22;2769;49.864;8.656;2022-12-20T00:06:34;6.40;99.90
5494;DHT22;2769;49.864;8.656;2022-12-20T00:09:05;6.40;99.90
5494;DHT22;2769;49.864;8.656;2022-12-20T00:11:33;6.50;99.90
5494;DHT22;2769;49.864;8.656;2022-12-20T00:14:02;6.30;99.90
5494;DHT22;2769;49.864;8.656;2022-12-20T00:16:30;6.40;99.90
5494;DHT22;2769;49.864;8.656;2022-12-20T00:19:01;6.30;99.90
5494;DHT22;2769;49.864;8.656;2022-12-20T00:21:31;6.20;99.90
5494;DHT22;2769;49.864;8.656;2022-12-20T00:24:02;6.00;99.90
5494;DHT22;2769;49.864;8.656;2022-12-20T00:26:32;5.90;99.90
5494;DHT22;2769;49.864;8.656;2022-12-20T00:29:01;5.90;99.90
5494;DHT22;2769;49.864;8.656;2022-12-20T00:31:30;5.90;99.90
5494;DHT22;2769;49.864;8.656;2022-12-20T00:33:59;6.10;99.90
5494;DHT22;2769;49.864;8.656;2022-12-20T00:36:29;6.20;99.90
5494;DHT22;2769;49.864;8.656;2022-12-20T00:38:59;6.20;99.90
5494;DHT22;2769;49.864;8.656;2022-12-20T00:41:30;6.20;99.90
5494;DHT22;2769;49.864;8.656;2022-12-20T00:44:01;6.10;99.90
5494;DHT22;2769;49.864;8.656;2022-12-20T00:46:30;6.20;99.90
5494;DHT22;2769;49.864;8.656;2022-12-20T00:49:00;6.20;99.90
5494;DHT22;2769;49.864;8.656;2022-12-20T00:51:29;6.20;99.90
5494;DHT22;2769;49.864;8.656;2022-12-20T00:53:58;6.20;99.90
5494;DHT22;2769;49.864;8.656;2022-12-20T00:56:28;6.20;99.90
5494;DHT22;2769;49.864;8.656;2022-12-20T00:58:57;6.20;99.90
5494;DHT22;2769;49.864;8.656;2022-12-20T01:01:28;6.20;99.90
5494;DHT22;2769;49.864;8.656;2022-12-20T01:03:58;6.20;99.90
5494;DHT22;2769;49.864;8.656;2022-12-20T01:06:27;6.20;99.90
5494;DHT22;2769;49.864;8.656;2022-12-20T01:08:56;6.10;99.90
5494;DHT22;2769;49.864;8.656;2022-12-20T01:11:27;6.10;99.90
5494;DHT22;2769;49.864;8.656;2022-12-20T01:13:59;6.10;99.90
5494;DHT22;2769;49.864;8.656;2022-12-20T01:16:34;6.10;99.90
5494;DHT22;2769;49.864;8.656;2022-12-20T01:19:03;6.00;99.90
5494;DHT22;2769;49.864;8.656;2022-12-20T01:21:32;5.80;99.90
5494;DHT22;2769;49.864;8.656;2022-12-20T01:24:00;5.60;99.90
5494;DHT22;2769;49.864;8.656;2022-12-20T01:26:28;5.60;99.90
5494;DHT22;2769;49.864;8.656;2022-12-20T01:28:58;5.90;99.90
5494;DHT22;2769;49.864;8.656;2022-12-20T01:31:28;6.00;99.90
5494;DHT22;2769;49.864;8.656;2022-12-20T01:33:59;6.00;99.90
5494;DHT22;2769;49.864;8.656;2022-12-20T01:36:29;6.10;99.90
5494;DHT22;2769;49.864;8.656;2022-12-20T01:38:59;6.00;99.90
5494;DHT22;2769;49.864;8.656;2022-12-20T01:41:29;6.10;99.90
5494;DHT22;2769;49.864;8.656;2022-12-20T01:44:01;6.00;99.90
5494;DHT22;2769;49.864;8.656;2022-12-20T01:46:30;6.10;99.90
5494;DHT22;2769;49.864;8.656;2022-12-20T01:49:03;6.10;99.90
5494;DHT22;2769;49.864;8.656;2022-12-20T01:51:35;6.10;99.90
5494;DHT22;2769;49.864;8.656;2022-12-20T01:54:08;6.20;99.90
5494;DHT22;2769;49.864;8.656;2022-12-20T01:56:38;6.20;99.90
5494;DHT22;2769;49.864;8.656;2022-12-20T01:59:13;6.20;99.90
5494;DHT22;2769;49.864;8.656;2022-12-20T02:01:42;6.20;99.90
5494;DHT22;2769;49.864;8.656;2022-12-20T02:04:11;6.20;99.90
5494;DHT22;2769;49.864;8.656;2022-12-20T02:06:40;6.20;99.90
5494;DHT22;2769;49.864;8.656;2022-12-20T02:09:08;6.20;99.90
5494;DHT22;2769;49.864;8.656;2022-12-20T02:11:55;6.30;99.90
5494;DHT22;2769;49.864;8.656;2022-12-20T02:14:41;6.20;99.90
5494;DHT22;2769;49.864;8.656;2022-12-20T02:17:19;6.20;99.90
5494;DHT22;2769;49.864;8.656;2022-12-20T02:23:23;6.30;99.90
5494;DHT22;2769;49.864;8.656;2022-12-20T02:26:07;6.30;99.90
5494;DHT22;2769;49.864;8.656;2022-12-20T02:29:00;6.20;99.90
5494;DHT22;2769;49.864;8.656;2022-12-20T02:31:36;6.40;99.90
5494;DHT22;2769;49.864;8.656;2022-12-20T02:34:08;6.50;99.90
5494;DHT22;2769;49.864;8.656;2022-12-20T02:36:37;6.60;99.90
5494;DHT22;2769;49.864;8.656;2022-12-20T02:39:14;6.40;99.90
5494;DHT22;2769;49.864;8.656;2022-12-20T02:41:46;6.40;99.90
5494;DHT22;2769;49.864;8.656;2022-12-20T02:44:25;6.40;99.90
5494;DHT22;2769;49.864;8.656;2022-12-20T02:47:17;6.40;99.90
5494;DHT22;2769;49.864;8.656;2022-12-20T02:49:48;6.30;99.90
5494;DHT22;2769;49.864;8.656;2022-12-20T02:52:18;6.30;99.90
5494;DHT22;2769;49.864;8.656;2022-12-20T02:54:50;6.30;99.90
5494;DHT22;2769;49.864;8.656;2022-12-20T02:57:22;6.20;99.90
5494;DHT22;2769;49.864;8.656;2022-12-20T02:59:57;6.30;99.90
5494;DHT22;2769;49.864;8.656;2022-12-20T03:02:32;6.30;99.90
5494;DHT22;2769;49.864;8.656;2022-12-20T03:05:24;6.30;99.90
5494;DHT22;2769;49.864;8.656;2022-12-20T03:07:53;6.30;99.90
5494;DHT22;2769;49.864;8.656;2022-12-20T03:10:24;6.30;99.90
5494;DHT22;2769;49.864;8.656;2022-12-20T03:12:52;6.20;99.90
5494;DHT22;2769;49.864;8.656;2022-12-20T03:15:20;6.10;99.90
5494;DHT22;2769;49.864;8.656;2022-12-20T03:17:53;5.90;99.90
5494;DHT22;2769;49.864;8.656;2022-12-20T03:20:22;5.90;99.90
5494;DHT22;2769;49.864;8.656;2022-12-20T03:22:50;5.90;99.90
5494;DHT22;2769;49.864;8.656;2022-12-20T03:25:18;6.00;99.90
5494;DHT22;2769;49.864;8.656;2022-12-20T03:27:47;6.30;99.90
5494;DHT22;2769;49.864;8.656;2022-12-20T03:30:16;6.20;99.90
5494;DHT22;2769;49.864;8.656;2022-12-20T03:32:45;6.30;99.90
5494;DHT22;2769;49.864;8.656;2022-12-20T03:35:15;6.30;99.90
5494;DHT22;2769;49.864;8.656;2022-12-20T03:37:43;6.40;99.90
5494;DHT22;2769;49.864;8.656;2022-12-20T03:40:12;6.40;99.90
5494;DHT22;2769;49.864;8.656;2022-12-20T03:42:42;6.30;99.90
5494;DHT22;2769;49.864;8.656;2022-12-20T03:45:14;6.40;99.90
5494;DHT22;2769;49.864;8.656;2022-12-20T03:47:43;6.40;99.90
5494;DHT22;2769;49.864;8.656;2022-12-20T03:50:11;6.50;99.90
5494;DHT22;2769;49.864;8.656;2022-12-20T03:52:43;6.30;99.90
5494;DHT22;2769;49.864;8.656;2022-12-20T03:55:11;6.30;99.90
5494;DHT22;2769;49.864;8.656;2022-12-20T03:57:42;6.30;99.90
5494;DHT22;2769;49.864;8.656;2022-12-20T04:00:23;6.40;99.90
5494;DHT22;2769;49.864;8.656;2022-12-20T04:02:59;6.40;99.90
5494;DHT22;2769;49.864;8.656;2022-12-20T04:05:29;6.40;99.90
5494;DHT22;2769;49.864;8.656;2022-12-20T04:07:59;6.30;99.90
5494;DHT22;2769;49.864;8.656;2022-12-20T04:10:27;6.40;99.90
5494;DHT22;2769;49.864;8.656;2022-12-20T04:12:55;6.30;99.90
5494;DHT22;2769;49.864;8.656;2022-12-20T04:15:24;6.30;99.90
5494;DHT22;2769;49.864;8.656;2022-12-20T04:17:52;6.40;99.90
5494;DHT22;2769;49.864;8.656;2022-12-20T04:20:21;6.40;99.90
5494;DHT22;2769;49.864;8.656;2022-12-20T04:23:09;6.50;99.90
5494;DHT22;2769;49.864;8.656;2022-12-20T04:25:38;6.40;99.90
5494;DHT22;2769;49.864;8.656;2022-12-20T04:28:06;6.40;99.90
5494;DHT22;2769;49.864;8.656;2022-12-20T04:30:34;6.40;99.90
5494;DHT22;2769;49.864;8.656;2022-12-20T04:33:03;6.40;99.90
5494;DHT22;2769;49.864;8.656;2022-12-20T04:35:31;6.40;99.90
5494;DHT22;2769;49.864;8.656;2022-12-20T04:38:00;6.50;99.90
5494;DHT22;2769;49.864;8.656;2022-12-20T04:40:30;6.40;99.90
5494;DHT22;2769;49.864;8.656;2022-12-20T04:43:01;6.40;99.90
5494;DHT22;2769;49.864;8.656;2022-12-20T04:45:29;6.50;99.90
5494;DHT22;2769;49.864;8.656;2022-12-20T04:47:58;6.50;99.90
5494;DHT22;2769;49.864;8.656;2022-12-20T04:50:47;6.50;99.90
5494;DHT22;2769;49.864;8.656;2022-12-20T04:53:15;6.50;99.90
5494;DHT22;2769;49.864;8.656;2022-12-20T04:56:03;6.60;99.90
5494;DHT22;2769;49.864;8.656;2022-12-20T04:58:31;6.40;99.90
5494;DHT22;2769;49.864;8.656;2022-12-20T05:01:02;6.50;99.90
5494;DHT22;2769;49.864;8.656;2022-12-20T05:03:39;6.30;99.90
5494;DHT22;2769;49.864;8.656;2022-12-20T05:06:09;6.30;99.90
5494;DHT22;2769;49.864;8.656;2022-12-20T05:08:38;6.40;99.90
5494;DHT22;2769;49.864;8.656;2022-12-20T05:11:08;6.30;99.90
5494;DHT22;2769;49.864;8.656;2022-12-20T05:13:37;5.90;99.90
5494;DHT22;2769;49.864;8.656;2022-12-20T05:16:06;5.90;99.90
5494;DHT22;2769;49.864;8.656;2022-12-20T05:18:35;5.90;99.90
5494;DHT22;2769;49.864;8.656;2022-12-20T05:21:10;6.10;99.90
5494;DHT22;2769;49.864;8.656;2022-12-20T05:23:56;6.20;99.90
5494;DHT22;2769;49.864;8.656;2022-12-20T05:26:56;6.40;99.90
5494;DHT22;2769;49.864;8.656;2022-12-20T05:29:25;6.40;99.90
5494;DHT22;2769;49.864;8.656;2022-12-20T05:31:54;6.50;99.90
5494;DHT22;2769;49.864;8.656;2022-12-20T05:34:24;6.50;99.90
5494;DHT22;2769;49.864;8.656;2022-12-20T05:36:54;6.50;99.90
5494;DHT22;2769;49.864;8.656;2022-12-20T05:39:26;6.60;99.90
5494;DHT22;2769;49.864;8.656;2022-12-20T05:42:00;6.60;99.90
5494;DHT22;2769;49.864;8.656;2022-12-20T05:44:28;6.70;99.90
5494;DHT22;2769;49.864;8.656;2022-12-20T05:46:57;6.70;99.90
5494;DHT22;2769;49.864;8.656;2022-12-20T05:49:28;6.70;99.90
5494;DHT22;2769;49.864;8.656;2022-12-20T05:52:00;6.70;99.90
5494;DHT22;2769;49.864;8.656;2022-12-20T05:54:28;6.70;99.90
5494;DHT22;2769;49.864;8.656;2022-12-20T05:57:06;6.90;99.90
5494;DHT22;2769;49.864;8.656;2022-12-20T05:59:37;6.90;99.90
5494;DHT22;2769;49.864;8.656;2022-12-20T06:02:11;6.90;99.90
5494;DHT22;2769;49.864;8.656;2022-12-20T06:04:41;6.90;99.90
5494;DHT22;2769;49.864;8.656;2022-12-20T06:07:15;6.80;99.90
5494;DHT22;2769;49.864;8.656;2022-12-20T06:09:47;6.80;99.90
5494;DHT22;2769;49.864;8.656;2022-12-20T06:12:19;6.60;99.90
5494;DHT22;2769;49.864;8.656;2022-12-20T06:14:50;6.70;99.90
5494;DHT22;2769;49.864;8.656;2022-12-20T06:17:18;6.80;99.90
5494;DHT22;2769;49.864;8.656;2022-12-20T06:19:47;6.80;99.90
5494;DHT22;2769;49.864;8.656;2022-12-20T06:22:16;6.80;99.90
5494;DHT22;2769;49.864;8.656;2022-12-20T06:24:51;6.90;99.90
5494;DHT22;2769;49.864;8.656;2022-12-20T06:27:26;6.90;99.90
5494;DHT22;2769;49.864;8.656;2022-12-20T06:30:13;6.90;99.90
5494;DHT22;2769;49.864;8.656;2022-12-20T06:33:02;6.90;99.90
5494;DHT22;2769;49.864;8.656;2022-12-20T06:35:31;6.80;99.90
5494;DHT22;2769;49.864;8.656;2022-12-20T06:37:59;6.70;99.90
5494;DHT22;2769;49.864;8.656;2022-12-20T06:40:31;6.70;99.90
5494;DHT22;2769;49.864;8.656;2022-12-20T06:43:01;6.70;99.90
5494;DHT22;2769;49.864;8.656;2022-12-20T06:45:30;6.70;99.90
5494;DHT22;2769;49.864;8.656;2022-12-20T06:48:07;6.70;99.90
5494;DHT22;2769;49.864;8.656;2022-12-20T06:50:36;6.70;99.90
5494;DHT22;2769;49.864;8.656;2022-12-20T06:53:06;6.70;99.90
5494;DHT22;2769;49.864;8.656;2022-12-20T06:55:34;7.00;99.90
5494;DHT22;2769;49.864;8.656;2022-12-20T06:58:04;6.80;99.90
5494;DHT22;2769;49.864;8.656;2022-12-20T07:00:35;6.70;99.90
5494;DHT22;2769;49.864;8.656;2022-12-20T07:03:04;6.80;99.90
5494;DHT22;2769;49.864;8.656;2022-12-20T07:05:32;6.90;99.90
5494;DHT22;2769;49.864;8.656;2022-12-20T07:08:00;7.00;99.90
5494;DHT22;2769;49.864;8.656;2022-12-20T07:10:30;6.90;99.90
5494;DHT22;2769;49.864;8.656;2022-12-20T07:12:58;6.90;99.90
5494;DHT22;2769;49.864;8.656;2022-12-20T07:15:28;7.00;99.90
5494;DHT22;2769;49.864;8.656;2022-12-20T07:17:56;7.00;99.90
5494;DHT22;2769;49.864;8.656;2022-12-20T07:20:24;7.00;99.90
5494;DHT22;2769;49.864;8.656;2022-12-20T07:22:53;7.10;99.90
5494;DHT22;2769;49.864;8.656;2022-12-20T07:25:21;7.10;99.90
5494;DHT22;2769;49.864;8.656;2022-12-20T07:27:50;7.20;99.90
5494;DHT22;2769;49.864;8.656;2022-12-20T07:30:25;7.20;99.90
5494;DHT22;2769;49.864;8.656;2022-12-20T07:33:00;7.30;99.90
5494;DHT22;2769;49.864;8.656;2022-12-20T07:35:28;7.30;99.90
5494;DHT22;2769;49.864;8.656;2022-12-20T07:37:57;7.30;99.90
5494;DHT22;2769;49.864;8.656;2022-12-20T07:40:25;7.30;99.90
5494;DHT22;2769;49.864;8.656;2022-12-20T07:42:54;7.20;99.90
5494;DHT22;2769;49.864;8.656;2022-12-20T07:45:23;7.20;99.90
5494;DHT22;2769;49.864;8.656;2022-12-20T07:47:52;7.30;99.90
5494;DHT22;2769;49.864;8.656;2022-12-20T07:50:22;7.40;99.90
5494;DHT22;2769;49.864;8.656;2022-12-20T07:52:50;7.40;99.90
5494;DHT22;2769;49.864;8.656;2022-12-20T07:55:20;7.60;99.90
5494;DHT22;2769;49.864;8.656;2022-12-20T07:57:50;7.30;99.90
5494;DHT22;2769;49.864;8.656;2022-12-20T08:00:21;7.20;99.90
5494;DHT22;2769;49.864;8.656;2022-12-20T08:02:53;7.20;99.90
5494;DHT22;2769;49.864;8.656;2022-12-20T08:05:24;7.20;99.90
5494;DHT22;2769;49.864;8.656;2022-12-20T08:07:55;7.20;99.90
5494;DHT22;2769;49.864;8.656;2022-12-20T08:10:26;7.20;99.90
5494;DHT22;2769;49.864;8.656;2022-12-20T08:12:55;7.30;99.90
5494;DHT22;2769;49.864;8.656;2022-12-20T08:15:24;7.30;99.90
5494;DHT22;2769;49.864;8.656;2022-12-20T08:17:53;7.20;99.90
5494;DHT22;2769;49.864;8.656;2022-12-20T08:20:21;7.20;99.90
5494;DHT22;2769;49.864;8.656;2022-12-20T08:22:51;7.00;99.90
5494;DHT22;2769;49.864;8.656;2022-12-20T08:25:20;7.00;99.90
5494;DHT22;2769;49.864;8.656;2022-12-20T08:27:48;7.00;99.90
5494;DHT22;2769;49.864;8.656;2022-12-20T08:30:16;7.10;99.90
5494;DHT22;2769;49.864;8.656;2022-12-20T08:32:45;7.20;99.90
5494;DHT22;2769;49.864;8.656;2022-12-20T08:35:13;7.50;99.90
5494;DHT22;2769;49.864;8.656;2022-12-20T08:37:41;7.40;99.90
5494;DHT22;2769;49.864;8.656;2022-12-20T08:40:11;7.40;99.90
5494;DHT22;2769;49.864;8.656;2022-12-20T08:42:40;7.60;99.90
5494;DHT22;2769;49.864;8.656;2022-12-20T08:45:10;7.70;99.90
5494;DHT22;2769;49.864;8.656;2022-12-20T08:47:38;7.70;99.90
5494;DHT22;2769;49.864;8.656;2022-12-20T08:50:07;7.80;99.90
5494;DHT22;2769;49.864;8.656;2022-12-20T08:52:35;7.80;99.90
5494;DHT22;2769;49.864;8.656;2022-12-20T08:55:04;7.90;99.90
5494;DHT22;2769;49.864;8.656;2022-12-20T08:57:34;8.00;99.90
5494;DHT22;2769;49.864;8.656;2022-12-20T09:00:03;8.00;99.90
5494;DHT22;2769;49.864;8.656;2022-12-20T09:02:33;8.00;99.90
5494;DHT22;2769;49.864;8.656;2022-12-20T09:05:01;8.10;99.90
5494;DHT22;2769;49.864;8.656;2022-12-20T09:07:30;8.20;99.90
5494;DHT22;2769;49.864;8.656;2022-12-20T09:09:59;8.20;99.90
5494;DHT22;2769;49.864;8.656;2022-12-20T09:12:27;8.30;99.90
5494;DHT22;2769;49.864;8.656;2022-12-20T09:14:57;8.30;99.90
5494;DHT22;2769;49.864;8.656;2022-12-20T09:17:25;8.40;99.90
5494;DHT22;2769;49.864;8.656;2022-12-20T09:19:53;8.40;99.90
5494;DHT22;2769;49.864;8.656;2022-12-20T09:22:22;8.50;99.90
5494;DHT22;2769;49.864;8.656;2022-12-20T09:24:50;8.50;99.90
5494;DHT22;2769;49.864;8.656;2022-12-20T09:27:18;8.60;99.90
5494;DHT22;2769;49.864;8.656;2022-12-20T09:29:46;8.80;99.90
5494;DHT22;2769;49.864;8.656;2022-12-20T09:32:16;8.90;99.90
5494;DHT22;2769;49.864;8.656;2022-12-20T09:34:44;9.10;99.90
5494;DHT22;2769;49.864;8.656;2022-12-20T09:37:14;9.20;99.90
5494;DHT22;2769;49.864;8.656;2022-12-20T09:39:42;9.30;99.90
5494;DHT22;2769;49.864;8.656;2022-12-20T09:42:13;9.40;99.90
5494;DHT22;2769;49.864;8.656;2022-12-20T09:44:42;9.50;99.90
5494;DHT22;2769;49.864;8.656;2022-12-20T09:47:16;9.60;99.90
5494;DHT22;2769;49.864;8.656;2022-12-20T09:49:48;9.70;99.90
5494;DHT22;2769;49.864;8.656;2022-12-20T09:52:27;9.80;99.90
5494;DHT22;2769;49.864;8.656;2022-12-20T09:55:05;10.10;99.90
5494;DHT22;2769;49.864;8.656;2022-12-20T09:57:50;10.20;99.90
5494;DHT22;2769;49.864;8.656;2022-12-20T10:00:21;10.60;99.90
5494;DHT22;2769;49.864;8.656;2022-12-20T10:02:50;10.70;99.90
5494;DHT22;2769;49.864;8.656;2022-12-20T10:05:38;10.90;99.90
5494;DHT22;2769;49.864;8.656;2022-12-20T10:08:22;11.10;99.90
5494;DHT22;2769;49.864;8.656;2022-12-20T10:10:54;10.80;99.90
5494;DHT22;2769;49.864;8.656;2022-12-20T10:13:33;10.70;99.90
5494;DHT22;2769;49.864;8.656;2022-12-20T10:16:12;10.50;99.90
5494;DHT22;2769;49.864;8.656;2022-12-20T10:18:57;10.50;99.90
5494;DHT22;2769;49.864;8.656;2022-12-20T10:21:33;10.40;99.90
5494;DHT22;2769;49.864;8.656;2022-12-20T10:24:08;10.50;99.90
5494;DHT22;2769;49.864;8.656;2022-12-20T10:26:37;10.50;99.90
5494;DHT22;2769;49.864;8.656;2022-12-20T10:29:05;10.50;99.90
5494;DHT22;2769;49.864;8.656;2022-12-20T10:31:34;10.50;99.90
5494;DHT22;2769;49.864;8.656;2022-12-20T10:34:04;10.50;99.90
5494;DHT22;2769;49.864;8.656;2022-12-20T10:36:34;10.40;99.90
5494;DHT22;2769;49.864;8.656;2022-12-20T10:39:05;10.50;99.90
5494;DHT22;2769;49.864;8.656;2022-12-20T10:41:46;10.50;99.90
5494;DHT22;2769;49.864;8.656;2022-12-20T10:44:18;10.20;99.90
5494;DHT22;2769;49.864;8.656;2022-12-20T10:46:52;10.30;99.90
5494;DHT22;2769;49.864;8.656;2022-12-20T10:49:28;10.30;99.90
5494;DHT22;2769;49.864;8.656;2022-12-20T10:51:59;10.30;99.90
5494;DHT22;2769;49.864;8.656;2022-12-20T10:54:31;10.10;99.90
5494;DHT22;2769;49.864;8.656;2022-12-20T10:57:02;10.10;99.90
5494;DHT22;2769;49.864;8.656;2022-12-20T10:59:33;10.10;99.90
5494;DHT22;2769;49.864;8.656;2022-12-20T11:02:02;10.20;99.90
5494;DHT22;2769;49.864;8.656;2022-12-20T11:04:56;10.30;99.90
5494;DHT22;2769;49.864;8.656;2022-12-20T11:07:27;10.30;99.90
5494;DHT22;2769;49.864;8.656;2022-12-20T11:09:57;10.40;99.90
5494;DHT22;2769;49.864;8.656;2022-12-20T11:12:26;10.60;99.90
5494;DHT22;2769;49.864;8.656;2022-12-20T11:15:07;11.00;99.90
5494;DHT22;2769;49.864;8.656;2022-12-20T11:17:38;11.10;99.90
5494;DHT22;2769;49.864;8.656;2022-12-20T11:20:24;11.10;99.90
5494;DHT22;2769;49.864;8.656;2022-12-20T11:23:01;11.10;99.90
5494;DHT22;2769;49.864;8.656;2022-12-20T11:25:43;11.10;99.90
5494;DHT22;2769;49.864;8.656;2022-12-20T11:28:35;11.00;99.90
5494;DHT22;2769;49.864;8.656;2022-12-20T11:31:14;10.90;99.90
5494;DHT22;2769;49.864;8.656;2022-12-20T11:33:55;11.00;99.90
5494;DHT22;2769;49.864;8.656;2022-12-20T11:36:41;11.10;99.90
5494;DHT22;2769;49.864;8.656;2022-12-20T11:39:22;11.00;99.90
5494;DHT22;2769;49.864;8.656;2022-12-20T11:42:04;11.10;99.90
5494;DHT22;2769;49.864;8.656;2022-12-20T11:44:48;10.70;99.90
5494;DHT22;2769;49.864;8.656;2022-12-20T11:47:54;10.60;99.90
5494;DHT22;2769;49.864;8.656;2022-12-20T11:50:48;10.70;99.90
5494;DHT22;2769;49.864;8.656;2022-12-20T11:53:23;10.90;99.90
5494;DHT22;2769;49.864;8.656;2022-12-20T11:55:56;11.00;99.90
5494;DHT22;2769;49.864;8.656;2022-12-20T11:58:31;11.20;99.90
5494;DHT22;2769;49.864;8.656;2022-12-20T12:01:07;11.40;99.90
5494;DHT22;2769;49.864;8.656;2022-12-20T12:03:40;11.50;99.90
5494;DHT22;2769;49.864;8.656;2022-12-20T12:06:15;11.60;99.90
5494;DHT22;2769;49.864;8.656;2022-12-20T12:08:50;11.70;99.90
5494;DHT22;2769;49.864;8.656;2022-12-20T12:11:22;11.80;99.90
5494;DHT22;2769;49.864;8.656;2022-12-20T12:14:18;11.70;99.90
5494;DHT22;2769;49.864;8.656;2022-12-20T12:16:52;11.70;99.90
5494;DHT22;2769;49.864;8.656;2022-12-20T12:19:26;11.70;99.90
5494;DHT22;2769;49.864;8.656;2022-12-20T12:22:01;11.70;99.90
5494;DHT22;2769;49.864;8.656;2022-12-20T12:24:34;11.60;99.90
5494;DHT22;2769;49.864;8.656;2022-12-20T12:27:06;11.30;99.90
5494;DHT22;2769;49.864;8.656;2022-12-20T12:29:42;11.40;99.90
5494;DHT22;2769;49.864;8.656;2022-12-20T12:32:18;11.40;99.90
5494;DHT22;2769;49.864;8.656;2022-12-20T12:34:58;11.40;99.90
5494;DHT22;2769;49.864;8.656;2022-12-20T12:43:48;11.50;99.90
5494;DHT22;2769;49.864;8.656;2022-12-20T12:46:21;11.60;99.90
5494;DHT22;2769;49.864;8.656;2022-12-20T12:48:56;11.70;99.90
5494;DHT22;2769;49.864;8.656;2022-12-20T12:51:28;11.60;99.90
5494;DHT22;2769;49.864;8.656;2022-12-20T12:54:11;11.70;99.90
5494;DHT22;2769;49.864;8.656;2022-12-20T12:56:43;11.60;99.90
5494;DHT22;2769;49.864;8.656;2022-12-20T12:59:40;11.60;99.90
5494;DHT22;2769;49.864;8.656;2022-12-20T13:02:34;11.60;99.90
5494;DHT22;2769;49.864;8.656;2022-12-20T13:05:33;11.50;99.90
5494;DHT22;2769;49.864;8.656;2022-12-20T13:08:02;11.50;99.90
5494;DHT22;2769;49.864;8.656;2022-12-20T13:13:35;11.40;99.90
5494;DHT22;2769;49.864;8.656;2022-12-20T13:16:26;11.40;99.90
5494;DHT22;2769;49.864;8.656;2022-12-20T13:19:19;11.30;99.90
5494;DHT22;2769;49.864;8.656;2022-12-20T13:22:17;11.30;99.90
5494;DHT22;2769;49.864;8.656;2022-12-20T13:24:53;11.40;99.90
5494;DHT22;2769;49.864;8.656;2022-12-20T13:27:29;11.50;99.90
5494;DHT22;2769;49.864;8.656;2022-12-20T13:33:37;11.40;99.90
5494;DHT22;2769;49.864;8.656;2022-12-20T13:36:32;11.20;99.90
5494;DHT22;2769;49.864;8.656;2022-12-20T13:41:47;11.20;99.90
5494;DHT22;2769;49.864;8.656;2022-12-20T13:44:35;11.00;99.90
5494;DHT22;2769;49.864;8.656;2022-12-20T13:50:20;11.20;99.90
5494;DHT22;2769;49.864;8.656;2022-12-20T13:52:50;11.20;99.90
5494;DHT22;2769;49.864;8.656;2022-12-20T13:55:33;11.30;99.90
5494;DHT22;2769;49.864;8.656;2022-12-20T13:58:10;11.20;99.90
5494;DHT22;2769;49.864;8.656;2022-12-20T14:00:40;11.30;99.90
5494;DHT22;2769;49.864;8.656;2022-12-20T14:03:19;11.40;99.90
5494;DHT22;2769;49.864;8.656;2022-12-20T14:05:55;11.30;99.90
5494;DHT22;2769;49.864;8.656;2022-12-20T14:08:26;11.20;99.90
5494;DHT22;2769;49.864;8.656;2022-12-20T14:11:06;11.20;99.90
5494;DHT22;2769;49.864;8.656;2022-12-20T14:13:34;11.30;99.90
5494;DHT22;2769;49.864;8.656;2022-12-20T14:16:08;11.10;99.90
5494;DHT22;2769;49.864;8.656;2022-12-20T14:18:38;11.10;99.90
5494;DHT22;2769;49.864;8.656;2022-12-20T14:21:08;11.10;99.90
5494;DHT22;2769;49.864;8.656;2022-12-20T14:23:40;10.90;99.90
5494;DHT22;2769;49.864;8.656;2022-12-20T14:26:11;10.70;99.90
5494;DHT22;2769;49.864;8.656;2022-12-20T14:28:41;10.80;99.90
5494;DHT22;2769;49.864;8.656;2022-12-20T14:31:23;10.70;99.90
5494;DHT22;2769;49.864;8.656;2022-12-20T14:34:01;10.60;99.90
5494;DHT22;2769;49.864;8.656;2022-12-20T14:36:31;10.60;99.90
5494;DHT22;2769;49.864;8.656;2022-12-20T14:39:00;10.70;99.90
5494;DHT22;2769;49.864;8.656;2022-12-20T14:41:31;10.90;99.90
5494;DHT22;2769;49.864;8.656;2022-12-20T14:44:03;10.90;99.90
5494;DHT22;2769;49.864;8.656;2022-12-20T14:46:33;11.00;99.90
5494;DHT22;2769;49.864;8.656;2022-12-20T14:49:20;10.90;99.90
5494;DHT22;2769;49.864;8.656;2022-12-20T14:51:53;10.90;99.90
5494;DHT22;2769;49.864;8.656;2022-12-20T14:54:31;10.80;99.90
5494;DHT22;2769;49.864;8.656;2022-12-20T14:57:22;10.80;99.90
5494;DHT22;2769;49.864;8.656;2022-12-20T14:59:59;10.80;99.90
5494;DHT22;2769;49.864;8.656;2022-12-20T15:02:38;10.80;99.90
5494;DHT22;2769;49.864;8.656;2022-12-20T15:07:53;10.70;99.90
5494;DHT22;2769;49.864;8.656;2022-12-20T15:10:21;10.60;99.90
5494;DHT22;2769;49.864;8.656;2022-12-20T15:12:50;10.70;99.90
5494;DHT22;2769;49.864;8.656;2022-12-20T15:15:18;10.60;99.90
5494;DHT22;2769;49.864;8.656;2022-12-20T15:17:55;10.50;99.90
5494;DHT22;2769;49.864;8.656;2022-12-20T15:20:23;10.40;99.90
5494;DHT22;2769;49.864;8.656;2022-12-20T15:22:53;10.40;99.90
5494;DHT22;2769;49.864;8.656;2022-12-20T15:25:21;10.30;99.90
5494;DHT22;2769;49.864;8.656;2022-12-20T15:27:49;10.10;99.90
5494;DHT22;2769;49.864;8.656;2022-12-20T15:30:18;10.00;99.90
5494;DHT22;2769;49.864;8.656;2022-12-20T15:32:46;10.00;99.90
5494;DHT22;2769;49.864;8.656;2022-12-20T15:35:21;10.00;99.90
5494;DHT22;2769;49.864;8.656;2022-12-20T15:37:50;10.00;99.90
5494;DHT22;2769;49.864;8.656;2022-12-20T15:40:20;10.00;99.90
5494;DHT22;2769;49.864;8.656;2022-12-20T15:42:48;10.00;99.90
5494;DHT22;2769;49.864;8.656;2022-12-20T15:45:18;10.10;99.90
5494;DHT22;2769;49.864;8.656;2022-12-20T15:47:47;10.00;99.90
5494;DHT22;2769;49.864;8.656;2022-12-20T15:50:15;10.00;99.90
5494;DHT22;2769;49.864;8.656;2022-12-20T15:52:44;10.00;99.90
5494;DHT22;2769;49.864;8.656;2022-12-20T15:55:12;10.10;99.90
5494;DHT22;2769;49.864;8.656;2022-12-20T15:57:41;10.00;99.90
5494;DHT22;2769;49.864;8.656;2022-12-20T16:00:11;10.10;99.90
5494;DHT22;2769;49.864;8.656;2022-12-20T16:02:39;10.10;99.90
5494;DHT22;2769;49.864;8.656;2022-12-20T16:05:10;10.10;99.90
5494;DHT22;2769;49.864;8.656;2022-12-20T16:07:40;10.10;99.90
5494;DHT22;2769;49.864;8.656;2022-12-20T16:10:12;10.10;99.90
5494;DHT22;2769;49.864;8.656;2022-12-20T16:12:42;10.10;99.90
5494;DHT22;2769;49.864;8.656;2022-12-20T16:15:19;10.20;99.90
5494;DHT22;2769;49.864;8.656;2022-12-20T16:17:47;10.20;99.90
5494;DHT22;2769;49.864;8.656;2022-12-20T16:20:16;10.20;99.90
5494;DHT22;2769;49.864;8.656;2022-12-20T16:22:45;10.20;99.90
5494;DHT22;2769;49.864;8.656;2022-12-20T16:25:22;10.20;99.90
5494;DHT22;2769;49.864;8.656;2022-12-20T16:27:52;10.20;99.90
5494;DHT22;2769;49.864;8.656;2022-12-20T16:30:20;10.30;99.90
5494;DHT22;2769;49.864;8.656;2022-12-20T16:32:49;10.20;99.90
5494;DHT22;2769;49.864;8.656;2022-12-20T16:35:25;10.20;99.90
5494;DHT22;2769;49.864;8.656;2022-12-20T16:37:54;10.20;99.90
5494;DHT22;2769;49.864;8.656;2022-12-20T16:40:24;10.30;99.90
5494;DHT22;2769;49.864;8.656;2022-12-20T16:42:55;10.40;99.90
5494;DHT22;2769;49.864;8.656;2022-12-20T16:45:25;10.30;99.90
5494;DHT22;2769;49.864;8.656;2022-12-20T16:47:54;10.20;99.90
5494;DHT22;2769;49.864;8.656;2022-12-20T16:50:24;10.30;99.90
5494;DHT22;2769;49.864;8.656;2022-12-20T16:52:52;10.30;99.90
5494;DHT22;2769;49.864;8.656;2022-12-20T16:55:23;10.30;99.90
5494;DHT22;2769;49.864;8.656;2022-12-20T16:57:54;10.30;99.90
5494;DHT22;2769;49.864;8.656;2022-12-20T17:00:24;10.30;99.90
5494;DHT22;2769;49.864;8.656;2022-12-20T17:02:53;10.30;99.90
5494;DHT22;2769;49.864;8.656;2022-12-20T17:05:25;10.10;99.90
5494;DHT22;2769;49.864;8.656;2022-12-20T17:07:54;10.10;99.90
5494;DHT22;2769;49.864;8.656;2022-12-20T17:10:24;10.00;99.90
5494;DHT22;2769;49.864;8.656;2022-12-20T17:12:54;10.00;99.90